createdAt,value
2018-11-23T00:02:14.738Z,96023.00
2018-11-23T00:04:45.316Z,96028.00
2018-11-23T00:07:15.573Z,96029.00
2018-11-23T00:09:51.812Z,96035.00
2018-11-23T00:12:22.195Z,96030.00
2018-11-23T00:14:52.580Z,96045.00
2018-11-23T00:17:22.843Z,96030.00
2018-11-23T00:19:53.277Z,96031.00
2018-11-23T00:22:23.522Z,96038.00
2018-11-23T00:24:53.830Z,96031.00
2018-11-23T00:27:24.087Z,96035.00
2018-11-23T00:29:54.426Z,96027.00
2018-11-23T00:32:24.874Z,96028.00
2018-11-23T00:34:55.171Z,96024.00
2018-11-23T00:37:25.451Z,96020.00
2018-11-23T00:39:56.099Z,96018.00
2018-11-23T00:42:26.948Z,96046.00
2018-11-23T00:44:57.605Z,96012.00
2018-11-23T00:47:27.997Z,96012.00
2018-11-23T00:49:58.298Z,96016.00
2018-11-23T00:52:28.991Z,96015.00
2018-11-23T00:54:59.315Z,96014.00
2018-11-23T00:57:30.032Z,96027.00
2018-11-23T01:00:00.358Z,96023.00
2018-11-23T01:02:31.030Z,96035.00
2018-11-23T01:05:01.310Z,96027.00
2018-11-23T01:07:31.908Z,96030.00
2018-11-23T01:10:02.163Z,96029.00
2018-11-23T01:12:33.038Z,96038.00
2018-11-23T01:15:03.320Z,96033.00
2018-11-23T01:17:33.675Z,96036.00
2018-11-23T01:20:04.115Z,96041.00
2018-11-23T01:22:34.530Z,96037.00
2018-11-23T01:25:05.610Z,96031.00
2018-11-23T01:27:35.911Z,96028.00
2018-11-23T01:30:12.004Z,96033.00
2018-11-23T01:32:42.350Z,96030.00
2018-11-23T01:35:12.727Z,96031.00
2018-11-23T01:37:43.037Z,96025.00
2018-11-23T01:40:16.029Z,96031.00
2018-11-23T01:42:46.802Z,96027.00
2018-11-23T01:45:17.299Z,96027.00
2018-11-23T01:47:47.598Z,96025.00
2018-11-23T01:50:24.002Z,96029.00
2018-11-23T01:52:54.475Z,96031.00
2018-11-23T01:55:25.457Z,96033.00
2018-11-23T01:57:56.114Z,96034.00
2018-11-23T02:00:27.682Z,96037.00
2018-11-23T02:02:58.403Z,96033.00
2018-11-23T02:05:28.884Z,96029.00
2018-11-23T02:07:59.159Z,96032.00
2018-11-23T02:10:29.646Z,96040.00
2018-11-23T02:12:59.958Z,96029.00
2018-11-23T02:15:30.302Z,96038.00
2018-11-23T02:18:00.590Z,96041.00
2018-11-23T02:20:31.334Z,96044.00
2018-11-23T02:23:01.659Z,96049.00
2018-11-23T02:25:32.011Z,96052.00
2018-11-23T02:28:02.345Z,96052.00
2018-11-23T02:30:33.044Z,96041.00
2018-11-23T02:33:03.359Z,96048.00
2018-11-23T02:35:33.602Z,96040.00
2018-11-23T02:38:03.895Z,96038.00
2018-11-23T02:40:34.154Z,96043.00
2018-11-23T02:43:04.443Z,96037.00
2018-11-23T02:45:34.706Z,96047.00
2018-11-23T02:48:05.198Z,96045.00
2018-11-23T02:50:35.423Z,96037.00
2018-11-23T02:53:05.719Z,96038.00
2018-11-23T02:55:35.944Z,96041.00
2018-11-23T02:58:06.306Z,96037.00
2018-11-23T03:00:36.544Z,96032.00
2018-11-23T03:03:06.951Z,96026.00
2018-11-23T03:05:37.214Z,96039.00
2018-11-23T03:08:07.475Z,96032.00
2018-11-23T03:10:37.695Z,96024.00
2018-11-23T03:13:07.947Z,96027.00
2018-11-23T03:15:38.205Z,96024.00
2018-11-23T03:18:08.453Z,96034.00
2018-11-23T03:20:38.867Z,96031.00
2018-11-23T03:23:09.119Z,96031.00
2018-11-23T03:25:39.720Z,96018.00
2018-11-23T03:28:09.983Z,96025.00
2018-11-23T03:30:42.410Z,96028.00
2018-11-23T03:33:12.667Z,96031.00
2018-11-23T03:35:43.678Z,96039.00
2018-11-23T03:38:13.935Z,96041.00
2018-11-23T03:40:44.199Z,96033.00
2018-11-23T03:43:14.458Z,96035.00
2018-11-23T03:45:44.834Z,96047.00
2018-11-23T03:48:15.147Z,96053.00
2018-11-23T03:50:45.393Z,96050.00
2018-11-23T03:53:15.667Z,96049.00
2018-11-23T03:55:45.925Z,96038.00
2018-11-23T03:58:16.233Z,96044.00
2018-11-23T04:00:46.492Z,96039.00
2018-11-23T04:03:16.767Z,96049.00
2018-11-23T04:05:47.094Z,96049.00
2018-11-23T04:08:17.400Z,96052.00
2018-11-23T04:10:47.670Z,96044.00
2018-11-23T04:13:17.942Z,96050.00
2018-11-23T04:15:48.198Z,96047.00
2018-11-23T04:18:18.491Z,96043.00
2018-11-23T04:20:59.108Z,96040.00
2018-11-23T04:23:30.456Z,96042.00
2018-11-23T04:26:00.786Z,96044.00
2018-11-23T04:28:31.087Z,96040.00
2018-11-23T04:31:01.391Z,96041.00
2018-11-23T04:33:31.874Z,96045.00
2018-11-23T04:36:02.120Z,96028.00
2018-11-23T04:38:32.434Z,96032.00
2018-11-23T04:41:02.676Z,96026.00
2018-11-23T04:43:33.082Z,96032.00
2018-11-23T04:46:03.363Z,96032.00
2018-11-23T04:48:33.646Z,96034.00
2018-11-23T04:51:04.214Z,96030.00
2018-11-23T04:53:34.498Z,96032.00
2018-11-23T04:56:04.767Z,96030.00
2018-11-23T04:58:35.183Z,96028.00
2018-11-23T05:01:05.424Z,96034.00
2018-11-23T05:03:35.743Z,96037.00
2018-11-23T05:06:06.285Z,96039.00
2018-11-23T05:08:36.605Z,96035.00
2018-11-23T05:11:06.886Z,96035.00
2018-11-23T05:13:37.245Z,96043.00
2018-11-23T05:16:07.507Z,96032.00
2018-11-23T05:18:37.811Z,96027.00
2018-11-23T05:21:08.079Z,96026.00
2018-11-23T05:23:38.370Z,96035.00
2018-11-23T05:26:08.639Z,96034.00
2018-11-23T05:28:39.038Z,96037.00
2018-11-23T05:31:09.306Z,96037.00
2018-11-23T05:33:40.012Z,96031.00
2018-11-23T05:36:10.266Z,96026.00
2018-11-23T05:38:40.570Z,96020.00
2018-11-23T05:41:10.864Z,96021.00
2018-11-23T05:43:41.651Z,96032.00
2018-11-23T05:46:11.991Z,96022.00
2018-11-23T05:48:42.503Z,96015.00
2018-11-23T05:51:13.128Z,96025.00
2018-11-23T05:53:43.435Z,96028.00
2018-11-23T05:56:13.800Z,96022.00
2018-11-23T05:58:44.099Z,96032.00
2018-11-23T06:01:14.363Z,96029.00
2018-11-23T06:03:44.662Z,96034.00
2018-11-23T06:06:14.930Z,96032.00
2018-11-23T06:08:45.222Z,96035.00
2018-11-23T06:11:15.500Z,96032.00
2018-11-23T06:13:45.816Z,96026.00
2018-11-23T06:16:16.066Z,96031.00
2018-11-23T06:18:49.243Z,96037.00
2018-11-23T06:21:19.555Z,96035.00
2018-11-23T06:23:49.858Z,96028.00
2018-11-23T06:26:25.003Z,96033.00
2018-11-23T06:28:56.011Z,96036.00
2018-11-23T06:31:27.139Z,96032.00
2018-11-23T06:33:58.122Z,96026.00
2018-11-23T06:36:28.431Z,96035.00
2018-11-23T06:38:58.702Z,96034.00
2018-11-23T06:41:29.050Z,96039.00
2018-11-23T06:43:59.339Z,96042.00
2018-11-23T06:46:30.511Z,96038.00
2018-11-23T06:49:00.793Z,96033.00
2018-11-23T06:51:31.192Z,96041.00
2018-11-23T06:54:01.583Z,96039.00
2018-11-23T06:56:32.214Z,96034.00
2018-11-23T06:59:02.664Z,96049.00
2018-11-23T07:01:33.030Z,96047.00
2018-11-23T07:04:03.291Z,96047.00
2018-11-23T07:06:33.805Z,96039.00
2018-11-23T07:09:05.331Z,96048.00
2018-11-23T07:11:35.623Z,96043.00
2018-11-23T07:14:05.975Z,96044.00
2018-11-23T07:16:36.251Z,96045.00
2018-11-23T07:19:06.678Z,96042.00
2018-11-23T07:21:36.973Z,96052.00
2018-11-23T07:24:07.405Z,96046.00
2018-11-23T07:26:37.754Z,96044.00
2018-11-23T07:29:08.028Z,96052.00
2018-11-23T07:31:38.331Z,96056.00
2018-11-23T07:34:08.578Z,96059.00
2018-11-23T07:36:40.586Z,96061.00
2018-11-23T07:39:26.522Z,96060.00
2018-11-23T07:42:27.442Z,96064.00
2018-11-23T07:44:57.953Z,96060.00
2018-11-23T07:47:28.279Z,96049.00
2018-11-23T07:49:58.527Z,96050.00
2018-11-23T07:52:29.406Z,96052.00
2018-11-23T07:54:59.646Z,96052.00
2018-11-23T07:57:30.039Z,96036.00
2018-11-23T08:00:00.287Z,96051.00
2018-11-23T08:02:30.810Z,96053.00
2018-11-23T08:05:01.058Z,96052.00
2018-11-23T08:07:31.322Z,96047.00
2018-11-23T08:10:00.751Z,96051.00
2018-11-23T08:12:31.059Z,96062.00
2018-11-23T08:15:01.311Z,96054.00
2018-11-23T08:17:32.130Z,96061.00
2018-11-23T08:20:02.494Z,96051.00
2018-11-23T08:22:32.756Z,96051.00
2018-11-23T08:25:02.991Z,96052.00
2018-11-23T08:27:33.686Z,96042.00
2018-11-23T08:30:04.880Z,96040.00
2018-11-23T08:32:35.155Z,96043.00
2018-11-23T08:35:06.143Z,96039.00
2018-11-23T08:37:36.479Z,96029.00
2018-11-23T08:40:12.846Z,96038.00
2018-11-23T08:42:43.569Z,96030.00
2018-11-23T08:45:15.986Z,96028.00
2018-11-23T08:47:46.283Z,96038.00
2018-11-23T08:50:19.590Z,96030.00
2018-11-23T08:52:49.882Z,96031.00
2018-11-23T08:55:20.607Z,96020.00
2018-11-23T08:57:50.863Z,96004.00
2018-11-23T09:00:22.775Z,96008.00
2018-11-23T09:02:54.870Z,96003.00
2018-11-23T09:05:25.628Z,95994.00
2018-11-23T09:07:56.606Z,96002.00
2018-11-23T09:10:29.330Z,96002.00
2018-11-23T09:13:02.027Z,96006.00
2018-11-23T09:15:32.541Z,96007.00
2018-11-23T09:18:03.013Z,95998.00
2018-11-23T09:20:33.523Z,95993.00
2018-11-23T09:23:03.770Z,95996.00
2018-11-23T09:25:34.323Z,96001.00
2018-11-23T09:28:04.600Z,95998.00
2018-11-23T09:30:34.894Z,96008.00
2018-11-23T09:33:05.221Z,96000.00
2018-11-23T09:35:35.521Z,95997.00
2018-11-23T09:38:06.122Z,96006.00
2018-11-23T09:40:36.426Z,96007.00
2018-11-23T09:43:06.870Z,96006.00
2018-11-23T09:45:37.290Z,96009.00
2018-11-23T09:48:08.166Z,96025.00
2018-11-23T09:50:39.026Z,96012.00
2018-11-23T09:53:09.481Z,96013.00
2018-11-23T09:55:40.042Z,96023.00
2018-11-23T09:58:10.303Z,96017.00
2018-11-23T10:00:41.140Z,96013.00
2018-11-23T10:03:11.426Z,96020.00
2018-11-23T10:05:41.755Z,96011.00
2018-11-23T10:08:12.020Z,96002.00
2018-11-23T10:10:42.303Z,96005.00
2018-11-23T10:13:12.745Z,95997.00
2018-11-23T10:15:43.044Z,95999.00
2018-11-23T10:18:13.390Z,95987.00
2018-11-23T10:20:43.707Z,95986.00
2018-11-23T10:23:13.987Z,95982.00
2018-11-23T10:25:44.286Z,95977.00
2018-11-23T10:28:14.537Z,95966.00
2018-11-23T10:30:44.835Z,95965.00
2018-11-23T10:33:15.112Z,95967.00
2018-11-23T10:35:45.423Z,95971.00
2018-11-23T10:38:15.702Z,95967.00
2018-11-23T10:40:46.019Z,95953.00
2018-11-23T10:43:16.283Z,95940.00
2018-11-23T10:45:46.663Z,95941.00
2018-11-23T10:48:16.924Z,95931.00
2018-11-23T10:50:47.239Z,95930.00
2018-11-23T10:53:17.610Z,95922.00
2018-11-23T10:55:47.883Z,95923.00
2018-11-23T10:58:18.151Z,95902.00
2018-11-23T11:00:53.588Z,95894.00
2018-11-23T11:03:39.118Z,95886.00
2018-11-23T11:06:14.750Z,95883.00
2018-11-23T11:08:45.060Z,95887.00
2018-11-23T11:11:15.396Z,95868.00
2018-11-23T11:13:45.664Z,95869.00
2018-11-23T11:16:16.007Z,95872.00
2018-11-23T11:18:46.281Z,95862.00
2018-11-23T11:21:16.575Z,95858.00
2018-11-23T11:23:46.854Z,95862.00
2018-11-23T11:26:17.182Z,95863.00
2018-11-23T11:28:47.442Z,95863.00
2018-11-23T11:31:17.767Z,95861.00
2018-11-23T11:33:48.050Z,95859.00
2018-11-23T11:36:18.347Z,95865.00
2018-11-23T11:38:48.836Z,95858.00
2018-11-23T11:41:19.143Z,95853.00
2018-11-23T11:43:49.397Z,95851.00
2018-11-23T11:46:19.674Z,95839.00
2018-11-23T11:48:49.923Z,95837.00
2018-11-23T11:51:20.206Z,95837.00
2018-11-23T11:53:51.636Z,95833.00
2018-11-23T11:56:21.916Z,95837.00
2018-11-23T11:58:53.057Z,95824.00
2018-11-23T12:01:25.502Z,95821.00
2018-11-23T12:03:56.338Z,95822.00
2018-11-23T12:06:27.112Z,95819.00
2018-11-23T12:08:57.494Z,95810.00
2018-11-23T12:11:28.035Z,95828.00
2018-11-23T12:13:58.267Z,95814.00
2018-11-23T12:16:28.955Z,95806.00
2018-11-23T12:18:59.479Z,95797.00
2018-11-23T12:21:29.911Z,95800.00
2018-11-23T12:24:00.145Z,95795.00
2018-11-23T12:26:31.018Z,95798.00
2018-11-23T12:29:01.301Z,95794.00
2018-11-23T12:31:31.873Z,95788.00
2018-11-23T12:34:02.657Z,95795.00
2018-11-23T12:36:33.759Z,95787.00
2018-11-23T12:39:04.976Z,95779.00
2018-11-23T12:41:35.273Z,95775.00
2018-11-23T12:44:06.781Z,95783.00
2018-11-23T12:46:37.153Z,95769.00
2018-11-23T12:49:07.631Z,95781.00
2018-11-23T12:51:38.085Z,95770.00
2018-11-23T12:54:09.563Z,95768.00
2018-11-23T12:56:40.228Z,95761.00
2018-11-23T12:59:10.498Z,95762.00
2018-11-23T13:01:41.226Z,95767.00
2018-11-23T13:04:11.504Z,95764.00
2018-11-23T13:06:42.221Z,95763.00
2018-11-23T13:09:12.535Z,95758.00
2018-11-23T13:11:43.171Z,95764.00
2018-11-23T13:14:13.446Z,95762.00
2018-11-23T13:16:43.735Z,95770.00
2018-11-23T13:19:14.043Z,95773.00
2018-11-23T13:21:44.371Z,95759.00
2018-11-23T13:24:14.663Z,95765.00
2018-11-23T13:26:45.892Z,95762.00
2018-11-23T13:29:16.471Z,95766.00
2018-11-23T13:31:46.503Z,95761.00
2018-11-23T13:34:16.767Z,95760.00
2018-11-23T13:36:47.075Z,95761.00
2018-11-23T13:39:17.359Z,95763.00
2018-11-23T13:41:47.656Z,95758.00
2018-11-23T13:44:17.906Z,95748.00
2018-11-23T13:46:48.283Z,95743.00
2018-11-23T13:49:18.551Z,95741.00
2018-11-23T13:51:48.885Z,95730.00
2018-11-23T13:54:19.150Z,95741.00
2018-11-23T13:56:49.514Z,95733.00
2018-11-23T13:59:19.790Z,95731.00
2018-11-23T14:01:50.127Z,95745.00
2018-11-23T14:04:21.627Z,95734.00
2018-11-23T14:06:52.149Z,95734.00
2018-11-23T14:09:22.424Z,95735.00
2018-11-23T14:11:52.715Z,95727.00
2018-11-23T14:14:22.999Z,95721.00
2018-11-23T14:16:53.751Z,95710.00
2018-11-23T14:19:24.050Z,95708.00
2018-11-23T14:21:57.395Z,95702.00
2018-11-23T14:24:27.882Z,95697.00
2018-11-23T14:26:58.205Z,95697.00
2018-11-23T14:29:29.003Z,95704.00
2018-11-23T14:31:59.383Z,95695.00
2018-11-23T14:34:29.922Z,95697.00
2018-11-23T14:37:00.217Z,95694.00
2018-11-23T14:39:31.122Z,95699.00
2018-11-23T14:42:01.440Z,95692.00
2018-11-23T14:44:32.087Z,95692.00
2018-11-23T14:47:02.682Z,95686.00
2018-11-23T14:49:33.124Z,95679.00
2018-11-23T14:52:03.537Z,95677.00
2018-11-23T14:54:34.050Z,95677.00
2018-11-23T14:57:04.391Z,95676.00
2018-11-23T14:59:35.016Z,95683.00
2018-11-23T15:02:05.350Z,95675.00
2018-11-23T15:04:35.612Z,95672.00
2018-11-23T15:07:05.968Z,95664.00
2018-11-23T15:09:36.232Z,95661.00
2018-11-23T15:12:06.969Z,95661.00
2018-11-23T15:14:37.272Z,95664.00
2018-11-23T15:17:07.802Z,95651.00
2018-11-23T15:19:38.086Z,95648.00
2018-11-23T15:22:08.452Z,95657.00
2018-11-23T15:24:38.714Z,95665.00
2018-11-23T15:27:09.386Z,95657.00
2018-11-23T15:29:39.692Z,95653.00
2018-11-23T15:32:10.015Z,95652.00
2018-11-23T15:34:41.086Z,95654.00
2018-11-23T15:37:11.923Z,95656.00
2018-11-23T15:39:42.401Z,95658.00
2018-11-23T15:42:12.755Z,95654.00
2018-11-23T15:44:44.726Z,95648.00
2018-11-23T15:47:15.226Z,95665.00
2018-11-23T15:49:45.839Z,95654.00
2018-11-23T15:52:16.331Z,95661.00
2018-11-23T15:54:46.674Z,95658.00
2018-11-23T15:57:17.126Z,95659.00
2018-11-23T15:59:47.479Z,95663.00
2018-11-23T16:02:17.794Z,95655.00
2018-11-23T16:04:48.102Z,95660.00
2018-11-23T16:07:18.446Z,95645.00
2018-11-23T16:09:48.799Z,95654.00
2018-11-23T16:12:19.304Z,95657.00
2018-11-23T16:14:49.628Z,95660.00
2018-11-23T16:17:19.998Z,95652.00
2018-11-23T16:19:50.324Z,95642.00
2018-11-23T16:22:20.654Z,95654.00
2018-11-23T16:24:51.105Z,95652.00
2018-11-23T16:27:21.693Z,95635.00
2018-11-23T16:29:52.116Z,95638.00
2018-11-23T16:32:22.561Z,95635.00
2018-11-23T16:34:52.951Z,95632.00
2018-11-23T16:37:23.250Z,95633.00
2018-11-23T16:39:53.823Z,95615.00
2018-11-23T16:42:24.276Z,95626.00
2018-11-23T16:44:54.651Z,95615.00
2018-11-23T16:47:25.054Z,95616.00
2018-11-23T16:49:55.358Z,95610.00
2018-11-23T16:52:25.740Z,95609.00
2018-11-23T16:54:56.006Z,95597.00
2018-11-23T16:57:27.024Z,95600.00
2018-11-23T16:59:57.542Z,95586.00
2018-11-23T17:02:28.166Z,95587.00
2018-11-23T17:04:58.981Z,95576.00
2018-11-23T17:07:29.548Z,95573.00
2018-11-23T17:09:59.814Z,95565.00
2018-11-23T17:12:30.355Z,95565.00
2018-11-23T17:15:00.763Z,95562.00
2018-11-23T17:17:31.249Z,95552.00
2018-11-23T17:20:01.555Z,95565.00
2018-11-23T17:22:32.076Z,95564.00
2018-11-23T17:25:02.364Z,95561.00
2018-11-23T17:27:32.908Z,95552.00
2018-11-23T17:30:03.596Z,95556.00
2018-11-23T17:32:34.363Z,95562.00
2018-11-23T17:35:06.099Z,95550.00
2018-11-23T17:37:37.844Z,95555.00
2018-11-23T17:40:11.583Z,95551.00
2018-11-23T17:42:42.212Z,95555.00
2018-11-23T17:45:15.887Z,95554.00
2018-11-23T17:47:46.536Z,95551.00
2018-11-23T17:50:18.291Z,95546.00
2018-11-23T17:52:49.202Z,95535.00
2018-11-23T17:55:19.589Z,95549.00
2018-11-23T17:57:50.528Z,95524.00
2018-11-23T18:00:28.913Z,95517.00
2018-11-23T18:03:00.209Z,95517.00
2018-11-23T18:05:32.183Z,95521.00
2018-11-23T18:08:03.785Z,95513.00
2018-11-23T18:10:34.990Z,95509.00
2018-11-23T18:13:05.332Z,95504.00
2018-11-23T18:15:36.243Z,95493.00
2018-11-23T18:18:07.254Z,95483.00
2018-11-23T18:20:37.658Z,95476.00
2018-11-23T18:23:08.229Z,95470.00
2018-11-23T18:25:40.056Z,95467.00
2018-11-23T18:28:10.542Z,95458.00
2018-11-23T18:30:41.026Z,95461.00
2018-11-23T18:33:11.407Z,95447.00
2018-11-23T18:35:42.437Z,95440.00
2018-11-23T18:38:12.852Z,95443.00
2018-11-23T18:40:43.201Z,95450.00
2018-11-23T18:43:13.483Z,95439.00
2018-11-23T18:45:43.863Z,95441.00
2018-11-23T18:48:14.194Z,95440.00
2018-11-23T18:50:44.588Z,95424.00
2018-11-23T18:53:14.887Z,95427.00
2018-11-23T18:55:45.254Z,95414.00
2018-11-23T18:58:15.558Z,95414.00
2018-11-23T19:00:45.902Z,95416.00
2018-11-23T19:03:16.204Z,95411.00
2018-11-23T19:05:46.575Z,95410.00
2018-11-23T19:08:17.095Z,95410.00
2018-11-23T19:10:47.432Z,95402.00
2018-11-23T19:13:17.709Z,95400.00
2018-11-23T19:15:48.206Z,95395.00
2018-11-23T19:18:18.507Z,95396.00
2018-11-23T19:20:48.867Z,95389.00
2018-11-23T19:23:19.494Z,95387.00
2018-11-23T19:25:50.117Z,95386.00
2018-11-23T19:28:20.399Z,95387.00
2018-11-23T19:30:50.748Z,95393.00
2018-11-23T19:33:21.022Z,95387.00
2018-11-23T19:35:51.351Z,95394.00
2018-11-23T19:38:21.738Z,95386.00
2018-11-23T19:40:52.810Z,95381.00
2018-11-23T19:43:23.235Z,95374.00
2018-11-23T19:45:54.109Z,95359.00
2018-11-23T19:48:24.394Z,95343.00
2018-11-23T19:50:55.658Z,95341.00
2018-11-23T19:53:26.906Z,95337.00
2018-11-23T19:55:57.819Z,95333.00
2018-11-23T19:58:28.667Z,95338.00
2018-11-23T20:00:59.023Z,95335.00
2018-11-23T20:03:29.412Z,95333.00
2018-11-23T20:05:59.738Z,95339.00
2018-11-23T20:08:30.175Z,95345.00
2018-11-23T20:11:00.536Z,95334.00
2018-11-23T20:13:30.984Z,95342.00
2018-11-23T20:16:01.301Z,95351.00
2018-11-23T20:18:32.055Z,95364.00
2018-11-23T20:21:02.765Z,95381.00
2018-11-23T20:23:34.674Z,95361.00
2018-11-23T20:26:05.838Z,95357.00
2018-11-23T20:28:36.550Z,95353.00
2018-11-23T20:31:07.331Z,95353.00
2018-11-23T20:33:38.356Z,95346.00
2018-11-23T20:36:09.609Z,95356.00
2018-11-23T20:38:41.019Z,95343.00
2018-11-23T20:41:11.914Z,95345.00
2018-11-23T20:43:43.098Z,95347.00
2018-11-23T20:46:14.529Z,95344.00
2018-11-23T20:48:45.474Z,95345.00
2018-11-23T20:51:16.211Z,95344.00
2018-11-23T20:53:46.650Z,95338.00
2018-11-23T20:56:18.642Z,95339.00
2018-11-23T20:58:49.924Z,95330.00
2018-11-23T21:01:21.013Z,95333.00
2018-11-23T21:03:52.479Z,95327.00
2018-11-23T21:06:23.984Z,95333.00
2018-11-23T21:08:54.986Z,95333.00
2018-11-23T21:11:26.471Z,95327.00
2018-11-23T21:13:58.000Z,95314.00
2018-11-23T21:16:29.275Z,95312.00
2018-11-23T21:19:00.695Z,95324.00
2018-11-23T21:21:31.778Z,95308.00
2018-11-23T21:24:02.951Z,95307.00
2018-11-23T21:26:33.810Z,95303.00
2018-11-23T21:29:05.160Z,95299.00
2018-11-23T21:31:35.583Z,95298.00
2018-11-23T21:34:07.799Z,95302.00
2018-11-23T21:36:38.541Z,95303.00
2018-11-23T21:39:13.712Z,95303.00
2018-11-23T21:41:42.132Z,95288.00
2018-11-23T21:44:12.484Z,95292.00
2018-11-23T21:46:43.296Z,95291.00
2018-11-23T21:49:14.954Z,95292.00
2018-11-23T21:51:46.191Z,95288.00
2018-11-23T21:54:16.675Z,95283.00
2018-11-23T21:56:47.170Z,95284.00
2018-11-23T21:59:17.831Z,95289.00
2018-11-23T22:01:48.737Z,95293.00
2018-11-23T22:04:19.886Z,95297.00
2018-11-23T22:06:51.117Z,95294.00
2018-11-23T22:09:21.492Z,95290.00
2018-11-23T22:11:52.518Z,95301.00
2018-11-23T22:14:22.190Z,95284.00
2018-11-23T22:16:52.719Z,95291.00
2018-11-23T22:19:23.014Z,95286.00
2018-11-23T22:21:53.351Z,95293.00
2018-11-23T22:24:23.651Z,95291.00
2018-11-23T22:26:54.005Z,95290.00
2018-11-23T22:29:24.337Z,95302.00
2018-11-23T22:31:55.040Z,95305.00
2018-11-23T22:34:25.513Z,95294.00
2018-11-23T22:36:56.088Z,95287.00
2018-11-23T22:39:26.967Z,95275.00
2018-11-23T22:41:57.660Z,95271.00
2018-11-23T22:44:28.119Z,95282.00
2018-11-23T22:46:58.999Z,95256.00
2018-11-23T22:49:29.591Z,95260.00
2018-11-23T22:51:59.960Z,95254.00
2018-11-23T22:54:30.335Z,95250.00
2018-11-23T22:57:00.715Z,95241.00
2018-11-23T22:59:31.152Z,95234.00
2018-11-23T23:02:01.455Z,95227.00
2018-11-23T23:04:32.156Z,95219.00
2018-11-23T23:07:02.495Z,95221.00
2018-11-23T23:09:32.791Z,95215.00
2018-11-23T23:12:03.138Z,95196.00
2018-11-23T23:14:33.696Z,95184.00
2018-11-23T23:17:04.027Z,95173.00
2018-11-23T23:19:34.360Z,95171.00
2018-11-23T23:22:04.951Z,95160.00
2018-11-23T23:24:34.950Z,95139.00
2018-11-23T23:27:05.501Z,95150.00
2018-11-23T23:29:35.968Z,95139.00
2018-11-23T23:32:06.637Z,95133.00
2018-11-23T23:34:37.144Z,95139.00
2018-11-23T23:37:07.487Z,95141.00
2018-11-23T23:39:37.752Z,95143.00
2018-11-23T23:42:08.104Z,95131.00
2018-11-23T23:44:38.932Z,95136.00
2018-11-23T23:47:09.400Z,95126.00
2018-11-23T23:49:40.243Z,95143.00
2018-11-23T23:52:10.618Z,95121.00
2018-11-23T23:54:40.951Z,95140.00
2018-11-23T23:57:11.938Z,95131.00
2018-11-23T23:59:42.552Z,95147.00
